LEVCEGPC

Guest
Details From LEVC - Valencia
To EGPC - Wick
Flight Number -
Tags Generated
Created
Modified
Stats Distance 1,144 nm / 2,118 km
Max Altitude 0 ft / 0 m
Waypoints 7
Social Downloads 0
Likes 0
Share VATSIM

Download

Looking for another format? Having issues loading an existing format? Contact us
Advertisement - Login to hide

Notes

Generated

Route

LEVC SOVOS ABLAN SAM25 APPLE WIK EGPC

ID Type Via Altitude Latitude Longitude Leg Dist Tot Dist Heading (true) Name
O LEVC APT - 0 ft / 0 m 39.49655˚ -0.50070˚ - 0 nm - -
SOVOS FIX - 0 ft / 0 m 43.38694˚ -0.90000˚ 234 nm 234 nm 356° / 355° -
ABLAN FIX - 0 ft / 0 m 47.31361˚ -1.42361˚ 236 nm 471 nm 355° / 354° -
SAM25 FIX - 0 ft / 0 m 50.84528˚ -1.98056˚ 213 nm 684 nm 354° / 354° -
APPLE FIX - 0 ft / 0 m 54.50000˚ -2.51389˚ 220 nm 904 nm 355° / 355° -
WIK VOR - 0 ft / 0 m 58.45889˚ -3.10028˚ 238 nm 1143 nm 356° / 355° WICK VOR-DME
O EGPC APT - 0 ft / 0 m 58.45582˚ -3.10161˚ 0 nm 1143 nm 193° / 193° -

Altitude Profile

Advertisement - Login to hide

Weather


0- 5 10 15 20 25 30 35+ Temperature / ° C

Clouds and Precipitation
Forecast for 2017-12-13 12:00 UTC. Updated 19 minutes ago

Ground ~20,000 ft ~40,000 ft Winds

LEVC

Details ICAO LEVC (VLC)
Name Valencia
Region Spain
Timezone Europe/Madrid (UTC+1.0)
Stats Elevation 225 ft / 69 m (AMSL)
Location 39.488236° -0.483892°
Runways 2
Magnetic Variation 0.191° E

METAR

LEVC 130930Z 24008KT CAVOK 10/M01 Q1027 NOSIG

Decode

TAF

TAF LEVC 130500Z 1306/1406 28005KT CAVOK TX17/1312Z TN00/1307Z BECMG 1312/1314 27013KT TEMPO 1312/1406 27015G25KT PROB40 TEMPO 1321/1406 27020G38KT

Decode

Departure Runways

ID Width Length Bearing (true) Bearing (mag) Surface Threshold Offset Overrun Length
12 148 ft / 45 m 10,555 ft / 3,217 m 116.25° 116.06° Asphalt 0 ft / 0 m 646 ft / 197 m
22 154 ft / 47 m 3,828 ft / 1,167 m 217.99° 217.80° Asphalt 0 ft / 0 m 0 ft / 0 m
30 148 ft / 45 m 10,555 ft / 3,217 m 296.27° 296.08° Asphalt 1,001 ft / 305 m 932 ft / 284 m
4 154 ft / 47 m 3,828 ft / 1,167 m 37.98° 37.79° Asphalt 0 ft / 0 m 0 ft / 0 m

EGPC

Details ICAO EGPC (WIC)
Name Wick
Region United Kingdom
Timezone Europe/London (UTC+0.0)
Stats Elevation 126 ft / 38 m (AMSL)
Location 58.457866° -3.092981°
Runways 2
Magnetic Variation 2.629° W

METAR

EGPC 130920Z 22009KT 9999 FEW014 03/02 Q0979

Decode

TAF

Not found

Destination Runways

ID Width Length Bearing (true) Bearing (mag) Surface Threshold Offset Overrun Length
08 148 ft / 45 m 3,390 ft / 1,033 m 75.45° 78.08° Asphalt 0 ft / 0 m 0 ft / 0 m
13 148 ft / 45 m 5,978 ft / 1,822 m 127.02° 129.65° Asphalt 814 ft / 248 m 0 ft / 0 m
26 148 ft / 45 m 3,390 ft / 1,033 m 255.46° 258.09° Asphalt 0 ft / 0 m 0 ft / 0 m
31 148 ft / 45 m 5,978 ft / 1,822 m 307.04° 309.67° Asphalt 1,010 ft / 308 m 0 ft / 0 m